Colorado AWOS List, Phone Numbers, Maps

USA |  
| Search AWOS

Rocky Mountain States: Montana | Wyoming | Colorado | New Mexico

Complete weather reports: Colorado

Legend: KFNL = METAR available Follow your local AWOS on AV Mobile = METAR available on AV Mobile
Station Colorado Location Frequency Phone
KAKOFAA ID AKO, ASOS, KAKO 010253Z AUTO 23004KT 10SM CLR 13/06 A2983 RMK AO2 SLP069 60000 T01330061 53010 Follow KAKO on AV Mobile COLORADO PLAINS REGIONAL 135.475 970-345-2320
KALSFAA ID ALS, ASOS, KALS 010352Z AUTO 00000KT 10SM CLR 05/01 A3004 RMK AO2 SLP133 T00500011 Follow KALS on AV Mobile SAN LUIS VALLEY REGIONAL 135.175 719-589-5669
KASEFAA ID ASE, ASOS, KASE 010253Z 20004KT 10SM BKN065 05/03 A3006 Follow KASE on AV Mobile ASPEN-PITKIN COUNTY AIRPORT 120.400 970-925-9168
KBKFFAA ID BKF, KBKF 010258Z 33003KT 10SM FEW070 SCT120 BKN220 15/01 A2990 Follow KBKF on AV Mobile Aurora, Buckley Air Force Base Airport
K7BMFAA ID 7BM, AWOS-3, K7BM 010334Z AUTO 30006KT 10SM SCT039 05/00 A3010 RMK AO2 Follow K7BM on AV Mobile Cottonwood Pass 132.050 303-512-4919
KBDUFAA ID BDU, AWOS-3, KBDU 010336Z AUTO 21004KT 10SM CLR 13/02 A2988 RMK AO2 Follow KBDU on AV Mobile Boulder Municipal Airport 118.825 303-541-9540
KAEJFAA ID AEJ, AWOS-3, KAEJ 010335Z AUTO 00000KT 10SM CLR 06/00 A3004 RMK AO2 T00610004 Follow KAEJ on AV Mobile Central Colorado Regional Airport 132.925 719-395-2599
KITRFAA ID ITR, ASOS, KITR 010253Z AUTO 21007KT 10SM CLR 13/07 A2981 RMK AO2 SLP061 T01330067 51007 Follow KITR on AV Mobile Kit Carson County Airport 135.225 719-346-7036
K1V6FAA ID 1V6, AWOS-3, K1V6 010330Z AUTO 30012KT 10SM CLR 16/00 A2990 RMK AO2 Follow K1V6 on AV Mobile CANON CITY 120.025
KAFFFAA ID AFF, KAFF 010258Z AUTO 30012KT 10SM FEW100 14/M03 A2994 RMK AO2 SLP075 T01421026 52018 Follow KAFF on AV Mobile Air Force Academy
KCOSFAA ID COS, ASOS, KCOS 010254Z 36007KT 10SM BKN110 BKN150 14/00 A2992 Follow KCOS on AV Mobile COLORADO SPRINGS MUNI 125.000 719-637-9696
KFLYFAA ID FLY, AWOS-3PT, KFLY 010334Z AUTO 00000KT 10SM SCT090 11/01 A2996 RMK AO2 T01050012 Follow KFLY on AV Mobile Meadowlake Airport, Peyton, CO 118.450 719-683-5371
KCCUFAA ID CCU, AWOS-3, KCCU 010335Z AUTO 24004KT 3SM -SN SCT006 BKN010 OVC025 01/M01 A3018 RMK AO2 Follow KCCU on AV Mobile Copper Mountain, Red Cliff Pass 118.075 970-968-1715
KCEZFAA ID CEZ, ASOS, KCEZ 010253Z AUTO 05006KT 10SM CLR 08/06 A2999 RMK AO2 SLP119 T00830056 53004 Follow KCEZ on AV Mobile CORTEZ MONTEZUMA COUNTY AIRPORT 135.625 970-564-0193
KCAGFAA ID CAG, ASOS, KCAG 010253Z AUTO 22004KT 10SM FEW080 OVC100 08/06 A2999 Follow KCAG on AV Mobile CRAIG MOFFAT AIRPORT 135.425 970-824-2373
KAJZFAA ID AJZ, AWOS-3, KAJZ 010335Z AUTO 04004KT 7SM CLR 12/08 A2998 RMK AO2 T01150078 Follow KAJZ on AV Mobile Blake Field Airport 134.000 970-874-3251
KDNRICAO ID KDNR Denver / Stapleton International, Co.
KAPAFAA ID APA, ASOS, KAPA 010253Z 00000KT 10SM FEW060 BKN120 BKN200 14/01 A2990 RMK AO2 SLP082 60000 T01390006 51016 Follow KAPA on AV Mobile DENVER CENTENNIAL AIRPORT 120.300 303-706-9098
KDENFAA ID DEN, ASOS, KDEN 010253Z 29004KT 10SM SCT080 BKN120 OVC200 15/02 A2988 Follow KDEN on AV Mobile DENVER INTERNATIONAL AIRPORT 125.600 303-342-0838
KFTGFAA ID FTG, AWOS-3, KFTG 010339Z AUTO 31005KT 10SM CLR 13/06 A2989 RMK AO2 Follow KFTG on AV Mobile Front Range Airport 119.025 303-261-9104
KBJCFAA ID BJC, AWOS-3, KBJC 010247Z 28010KT 20SM BKN120 BKN200 15/00 A2991 Follow KBJC on AV Mobile Rocky Mountain Metro Airport 126.250 720-887-8067
K4V5ICAO ID K4V5 Durango Aviation Weather Reporting Station
KDROFAA ID DRO, ASOS, KDRO 010253Z AUTO 25003KT 10SM CLR 11/02 A3003 RMK AO2 SLP137 T01110022 53006 Follow KDRO on AV Mobile DURANGO-LA PLATA COUNTY AIRPORT 120.625 970-259-3579
KEGEFAA ID EGE, AWOS-3, KEGE 010335Z AUTO 07003KT 10SM FEW017 BKN047 OVC070 07/06 A3006 Follow KEGE on AV Mobile Eagle County Regional 135.575 970-524-7386
CO90FAA ID CO90, ASOS, KANK 010355Z AUTO 28006KT 10SM CLR 09/01 A3009 RMK AO1 T00880012 Follow  on AV Mobile USAF Academy Bullseye Aux Airstrip 118.325 719-683-3346
K0COFAA ID 0CO, AWOS-3, K0CO 010335Z AUTO 30020G25KT M1/4SM FZFG OVC001 M04/M05 A3016 RMK AO2 Follow K0CO on AV Mobile EMPIRE 134.325
KEIKFAA ID EIK, AWOS-3, KEIK 010335Z AUTO 25007KT 10SM CLR 15/02 A2988 RMK AO2 T01450019 Follow KEIK on AV Mobile Erie Municipal Airport 133.825 303-604-4339
KFCSFAA ID FCS, KFCS 010258Z AUTO VRB01KT 10SM SCT130 13/01 A2989 RMK AO2 SLP106 T01260008 52014 Follow KFCS on AV Mobile Fort Carson
KFCLICAO ID KFCL Fort Collins Supplementary Aviation Weather Reporting Station
KFNLFAA ID FNL, AWOS-3, KFNL 010335Z AUTO 35005KT 10SM CLR 13/05 A2988 RMK AO1 Follow KFNL on AV Mobile Fort Collins/Loveland, Fort Collins-Loveland Municipal Airport 135.075 970-669-9187
KFMMFAA ID FMM, AWOS-3, KFMM 010335Z AUTO 27008G17KT 10SM BKN110 16/04 A2985 RMK AO2 T01560044 Follow KFMM on AV Mobile Fort Morgan Municipal Airport 132.950 970-867-4823
KGNBFAA ID GNB, AWOS-1 Granby-Grand County Airport 119.925 970-887-1803
KGJTFAA ID GJT, ASOS, KGJT 010253Z 07004KT 10SM CLR 11/08 A2993 Follow KGJT on AV Mobile GRAND JUNCTION WALKER FIELD 118.550 970-245-7881
KGXYFAA ID GXY, AWOS-3, KGXY 010335Z AUTO 00000KT 10SM CLR 13/06 A2987 RMK AO1 Follow KGXY on AV Mobile Greeley, Greeley-Weld County Airport 135.175 970-352-3511
K2V9ICAO ID K2V9 Gunnison Aviation Weather Reporting Station
KGUCFAA ID GUC, AWOS-3, KGUC 010335Z AUTO 00000KT 10SM FEW039 SCT049 BKN080 06/02 A3008 RMK AO1 Follow KGUC on AV Mobile Gunnison, Gunnison-Crested Butte Regional Airport 135.075 970-641-3240
KHDNFAA ID HDN, AWOS-3, KHDN 010335Z AUTO 12005KT 10SM FEW065 SCT085 BKN090 06/04 A3001 RMK AO1 Follow KHDN on AV Mobile Hayden, Yampa Valley Airport 119.275 970-276-3690
KHEQFAA ID HEQ, AWOS-3, KHEQ 010335Z AUTO 25005KT 10SM CLR 13/09 A2979 RMK AO2 Follow KHEQ on AV Mobile Holyoke Airport 119.275 970-854-3679
K20VFAA ID 20V, AWOS-3, K20V 010335Z AUTO 00000KT 10SM SCT031 BKN044 OVC050 05/03 A3006 RMK AO2 Follow K20V on AV Mobile Kremmling, Mc Elroy Airfield 118.425 970-724-9659
KLHXFAA ID LHX, ASOS, KLHX 010253Z AUTO 20008KT 10SM CLR 18/03 A2980 RMK AO2 SLP051 T01780033 53011 Follow KLHX on AV Mobile LA JUNTA MUNICIPAL AIRPORT 135.525 719-384-5961
KVTPFAA ID VTP, AWOS-3, KVTP 010330Z AUTO 20007KT 180V260 10SM CLR 03/M01 A3012 RMK AO2 Follow KVTP on AV Mobile La Veta Mountain, La Veta Pass 119.925 719-587-3120
KLAAFAA ID LAA, ASOS, KLAA 010253Z AUTO 00000KT 10SM CLR 14/09 A2976 RMK AO2 SLP051 T01390089 53006 Follow KLAA on AV Mobile LAMAR MUNICIPAL AIRPORT 135.625 719-336-3854
KLXVFAA ID LXV, ASOS, KLXV 010253Z AUTO 02008KT 10SM FEW047 SCT055 01/M01 A3010 Follow KLXV on AV Mobile LEADVILLE LAKE CO 118.375 719-486-2735
KLICFAA ID LIC, ASOS, KLIC 010255Z AUTO 32009KT 10SM SCT075 OVC090 13/08 A2988 RMK AO2 SLP076 T01330078 53013 Follow KLIC on AV Mobile LIMON MUNICIPAL AIRPORT 121.125 719-775-0515
KLMOFAA ID LMO, AWOS-3, KLMO 010334Z AUTO 20006KT 7SM CLR 15/04 A2989 RMK AO2 T01470039 Follow KLMO on AV Mobile Vance Brand Airport 120.000 303-684-7545
KEEOFAA ID EEO, ASOS, KEEO 010253Z AUTO 00000KT 10SM SCT055 08/06 A3000 RMK AO2 SLP121 6//// T00780056 50009 PNO $ Follow KEEO on AV Mobile MEEKER AIRPORT 135.525 970-878-5036
KMYPFAA ID MYP, AWOS-3, KMYP 010324Z AUTO M1/4SM FZFG OVC001 M01/M01 A3025 RMK AO2 Follow KMYP on AV Mobile Salida Mountain, Monarch Pass 124.175 719-539-4436
KMTJFAA ID MTJ, ASOS, KMTJ 010253Z AUTO 12005KT 10SM CLR 09/07 A3000 RMK AO2 SLP124 T00940067 53008 Follow KMTJ on AV Mobile MONTROSE REGIONAL AIRPORT 135.225 970-249-1534
KMNHFAA ID MNH, AWOS-3, KMNH 010332Z AUTO 00000KT 10SM CLR 08/02 A2995 RMK AO2 Follow KMNH on AV Mobile Elbert Mountain, Monument Pass 134.375 303-648-3479
K3MWFAA ID 3MW, AWOS-3, K3MW 211630Z AUTO RMK AO2 TSNO PWINO Follow K3MW on AV Mobile Mount Werner 127.125 970-871-5640
KCRVICAO ID KCRV Nederland Mountain, Corona Pass
KAIBFAA ID AIB, AWOS-3, KAIB 010335Z AUTO 09007KT 10SM CLR 10/06 A3003 RMK AO2 Follow KAIB on AV Mobile Hopkins Field Airport 132.525 970-864-2325
KPSOFAA ID PSO, AWOS-3, KPSO 010335Z AUTO 00000KT 10SM CLR 06/04 A3008 RMK AO2 T00570040 Follow KPSO on AV Mobile Stevens Field Airport 127.175 970-731-0365
KPEFICAO ID KPEF Peterson Air Force Base
KPUXICAO ID KPUX Pueblo NEXRAD
KPUBFAA ID PUB, ASOS, KPUB 010253Z 30018G22KT 10SM CLR 18/00 A2983 Follow KPUB on AV Mobile PUEBLO MEMORIAL AIRPORT 125.250 719-948-2803
K1V1ICAO ID K1V1 Rifle Aviation Weather Reporting Station
KRILFAA ID RIL, ASOS, KRIL 010253Z AUTO 16008KT 10SM SCT085 09/04 A2998 RMK AO2 SLP129 T00940044 51013 Follow KRIL on AV Mobile RIFLE GARFIELD COUNTY RGNL 135.275 970-625-2206
K04VFAA ID 04V, AWOS-3, K04V 010334Z AUTO 33007KT 10SM CLR 05/01 A3007 RMK AO2 Follow K04V on AV Mobile Saguache, Saguache Municipal Airport 118.625 719-655-2229
KS29ICAO ID KS29 Salida
KANKFAA ID ANK, AWOS-3, KANK 010335Z AUTO 30007KT 10SM CLR 10/01 A3009 RMK AO1 T00950012 Follow KANK on AV Mobile Harriet Alexander Field Airport 133.850 719-539-5268
KSPDICAO ID KSPD, KSPD 010256Z AUTO 00000KT 13/06 A2982 RMK AO1 SLP057 T01280056 53010 Follow KSPD on AV Mobile SPRINGFIELD COMANCHE NATL
KSBSFAA ID SBS, AWOS-3, KSBS 010334Z AUTO 08004KT 10SM SCT026 SCT060 BKN100 05/04 A3002 RMK AO1 T00520043 Follow KSBS on AV Mobile Steamboat Springs 118.325 970-879-7794
KSTKFAA ID STK, AWOS-3, KSTK 010330Z AUTO 30003KT 10SM SCT065 OVC090 18/07 A2980 RMK AO2 Follow KSTK on AV Mobile Sterling Municipal Airport 118.525 970-526-3009
K5SMFAA ID 5SM, AWOS-3, K5SM 010337Z AUTO 00000KT 2 1/2SM BR BKN002 01/01 A3016 RMK AO2 VIS 1 1/2V5 Follow K5SM on AV Mobile Sunlight 126.075 970-384-3380
KTEXFAA ID TEX, AWOS-3, KTEX 010335Z AUTO 10005KT 10SM CLR A3013 RMK AO2 Follow KTEX on AV Mobile Telluride, Telluride Regional Airport 118.325 970-728-1534
KTADFAA ID TAD, ASOS, KTAD 010254Z AUTO 00000KT 10SM CLR 17/00 A2989 RMK AO2 SLP065 T01670000 53014 Follow KTAD on AV Mobile Trinidad, Perry Stokes Airport 119.025 719-845-1156
K33VFAA ID 33V, AWOS-3, K33V 010334Z AUTO 17008KT 10SM SCT038 SCT045 BKN110 03/01 A3002 RMK AO2 Follow K33V on AV Mobile WALDEN 118.625 970-723-4513
4V1FAA ID 4V1, AWOS-3, KANK 010355Z AUTO 28006KT 10SM CLR 09/01 A3009 RMK AO1 T00880012 Follow  on AV Mobile Spanish Peaks Airfield 123.600 719-738-1053
K4BMFAA ID 4BM, AWOS-3, K4BM 260156Z AUTO 20008KT 7SM RA SCT035 SCT055 BKN090 08/03 A3056 RMK AO2 Follow K4BM on AV Mobile Wilkerson Pass 132.3 303-512-4418
KC96ICAO ID KC96 Winter Park Resort
KCPWFAA ID CPW, AWOS-3, KCPW 010330Z AUTO 22013KT 1 1/4SM BR BKN001 OVC005 M01/M01 A3022 RMK AO2 Follow KCPW on AV Mobile Pagosa Springs, Wolf Creek Pass 121.125 970-264-2180
K2V5FAA ID 2V5, AWOS-3, K2V5 010355Z AUTO 27003KT 10SM SCT120 14/09 A2979 RMK AO2 T01360085 Follow K2V5 on AV Mobile Wray Municipal Airport 118.250 970-332-5930

Click on the AV Mobile icon AV Mobile icon by any station to follow that AWOS feed on AirportView.net Mobile.

Legend: Commercial service airport with AWOS Commercial Airport AWOSNon-Commercial service airport with AWOS Non-Commercial Airport AWOS
Airport AWOS - Click symbol for weather report Fort Morgan Municipal Airport KFMM 010335Z AUTO 27008G17KT 10SM BKN110 16/04 A2985 RMK AO2 T01560044 Hopkins Field Airport KAIB 010335Z AUTO 09007KT 10SM CLR 10/06 A3003 RMK AO2 Telluride, Telluride Regional Airport KTEX 010335Z AUTO 10005KT 10SM CLR A3013 RMK AO2 Greeley, Greeley-Weld County Airport KGXY 010335Z AUTO 00000KT 10SM CLR 13/06 A2987 RMK AO1 Front Range Airport KFTG 010339Z AUTO 31005KT 10SM CLR 13/06 A2989 RMK AO2 Rocky Mountain Metro Airport KBJC 010247Z 28010KT 20SM BKN120 BKN200 15/00 A2991 DENVER CENTENNIAL AIRPORT KAPA 010253Z 00000KT 10SM FEW060 BKN120 BKN200 14/01 A2990 RMK AO2 SLP082 60000 T01390006 51016 DENVER INTERNATIONAL AIRPORT KDEN 010253Z 29004KT 10SM SCT080 BKN120 OVC200 15/02 A2988 Fort Collins/Loveland, Fort Collins-Loveland Municipal Airport KFNL 010335Z AUTO 35005KT 10SM CLR 13/05 A2988 RMK AO1 Boulder Municipal Airport KBDU 010336Z AUTO 21004KT 10SM CLR 13/02 A2988 RMK AO2 Vance Brand Airport KLMO 010334Z AUTO 20006KT 7SM CLR 15/04 A2989 RMK AO2 T01470039 Sterling Municipal Airport KSTK 010330Z AUTO 30003KT 10SM SCT065 OVC090 18/07 A2980 RMK AO2 Holyoke Airport KHEQ 010335Z AUTO 25005KT 10SM CLR 13/09 A2979 RMK AO2 COLORADO PLAINS REGIONAL KAKO 010253Z AUTO 23004KT 10SM CLR 13/06 A2983 RMK AO2 SLP069 60000 T01330061 53010 Kit Carson County Airport KITR 010253Z AUTO 21007KT 10SM CLR 13/07 A2981 RMK AO2 SLP061 T01330067 51007 LIMON MUNICIPAL AIRPORT KLIC 010255Z AUTO 32009KT 10SM SCT075 OVC090 13/08 A2988 RMK AO2 SLP076 T01330078 53013 COLORADO SPRINGS MUNI KCOS 010254Z 36007KT 10SM BKN110 BKN150 14/00 A2992 LAMAR MUNICIPAL AIRPORT KLAA 010253Z AUTO 00000KT 10SM CLR 14/09 A2976 RMK AO2 SLP051 T01390089 53006 LA JUNTA MUNICIPAL AIRPORT KLHX 010253Z AUTO 20008KT 10SM CLR 18/03 A2980 RMK AO2 SLP051 T01780033 53011 Trinidad, Perry Stokes Airport KTAD 010254Z AUTO 00000KT 10SM CLR 17/00 A2989 RMK AO2 SLP065 T01670000 53014 PUEBLO MEMORIAL AIRPORT KPUB 010253Z 30018G22KT 10SM CLR 18/00 A2983 CANON CITY 1V6 SAN LUIS VALLEY REGIONAL KALS 010352Z AUTO 00000KT 10SM CLR 05/01 A3004 RMK AO2 SLP133 T00500011 Saguache, Saguache Municipal Airport K04V 010334Z AUTO 33007KT 10SM CLR 05/01 A3007 RMK AO2 Granby-Grand County Airport KGNB WALDEN 33V Steamboat Springs KSBS 010334Z AUTO 08004KT 10SM SCT026 SCT060 BKN100 05/04 A3002 RMK AO1 T00520043 Hayden, Yampa Valley Airport KHDN 010335Z AUTO 12005KT 10SM FEW065 SCT085 BKN090 06/04 A3001 RMK AO1 Kremmling, Mc Elroy Airfield K20V 010335Z AUTO 00000KT 10SM SCT031 BKN044 OVC050 05/03 A3006 RMK AO2 LEADVILLE LAKE CO KLXV 010253Z AUTO 02008KT 10SM FEW047 SCT055 01/M01 A3010 Eagle County Regional KEGE 010335Z AUTO 07003KT 10SM FEW017 BKN047 OVC070 07/06 A3006 CRAIG MOFFAT AIRPORT KCAG 010253Z AUTO 22004KT 10SM FEW080 OVC100 08/06 A2999 MEEKER AIRPORT KEEO 010253Z AUTO 00000KT 10SM SCT055 08/06 A3000 RMK AO2 SLP121 6//// T00780056 50009 PNO $ ASPEN-PITKIN COUNTY AIRPORT KASE 010253Z 20004KT 10SM BKN065 05/03 A3006 Gunnison, Gunnison-Crested Butte Regional Airport KGUC 010335Z AUTO 00000KT 10SM FEW039 SCT049 BKN080 06/02 A3008 RMK AO1 DURANGO-LA PLATA COUNTY AIRPORT  KDRO 010253Z AUTO 25003KT 10SM CLR 11/02 A3003 RMK AO2 SLP137 T01110022 53006 Stevens Field Airport KPSO 010335Z AUTO 00000KT 10SM CLR 06/04 A3008 RMK AO2 T00570040 CORTEZ MONTEZUMA COUNTY AIRPORT  KCEZ 010253Z AUTO 05006KT 10SM CLR 08/06 A2999 RMK AO2 SLP119 T00830056 53004 MONTROSE REGIONAL AIRPORT KMTJ 010253Z AUTO 12005KT 10SM CLR 09/07 A3000 RMK AO2 SLP124 T00940067 53008 RIFLE GARFIELD COUNTY RGNL KRIL 010253Z AUTO 16008KT 10SM SCT085 09/04 A2998 RMK AO2 SLP129 T00940044 51013 GRAND JUNCTION WALKER FIELD KGJT 010253Z 07004KT 10SM CLR 11/08 A2993 Blake Field Airport KAJZ 010335Z AUTO 04004KT 7SM CLR 12/08 A2998 RMK AO2 T01150078 Central Colorado Regional Airport KAEJ 010335Z AUTO 00000KT 10SM CLR 06/00 A3004 RMK AO2 T00610004 Harriet Alexander Field Airport KANK 010335Z AUTO 30007KT 10SM CLR 10/01 A3009 RMK AO1 T00950012 Erie Municipal Airport KEIK 010335Z AUTO 25007KT 10SM CLR 15/02 A2988 RMK AO2 T01450019 Wray Municipal Airport K2V5 010355Z AUTO 27003KT 10SM SCT120 14/09 A2979 RMK AO2 T01360085
Legend: High Mountain AWOS Mountain Pass AWOS
Mountain Pass AWOS - Click symbol for weather report Pagosa Springs, Wolf Creek Pass KCPW 010330Z AUTO 22013KT 1 1/4SM BR BKN001 OVC005 M01/M01 A3022 RMK AO2 Saguache, Saguache Municipal Airport K04V 010334Z AUTO 33007KT 10SM CLR 05/01 A3007 RMK AO2 Kremmling, Mc Elroy Airfield K20V 010335Z AUTO 00000KT 10SM SCT031 BKN044 OVC050 05/03 A3006 RMK AO2 La Veta Mountain, La Veta Pass KVTP 010330Z AUTO 20007KT 180V260 10SM CLR 03/M01 A3012 RMK AO2 Salida Mountain, Monarch Pass KMYP 010324Z AUTO M1/4SM FZFG OVC001 M01/M01 A3025 RMK AO2 Cottonwood Pass K7BM 010334Z AUTO 30006KT 10SM SCT039 05/00 A3010 RMK AO2 Elbert Mountain, Monument Pass KMNH 010332Z AUTO 00000KT 10SM CLR 08/02 A2995 RMK AO2 Wilkerson Pass K4BM 260156Z AUTO 20008KT 7SM RA SCT035 SCT055 BKN090 08/03 A3056 RMK AO2 Copper Mountain, Red Cliff Pass KCCU 010335Z AUTO 24004KT 3SM -SN SCT006 BKN010 OVC025 01/M01 A3018 RMK AO2 EMPIRE 0CO Sunlight K5SM 010337Z AUTO 00000KT 2 1/2SM BR BKN002 01/01 A3016 RMK AO2 VIS 1 1/2V5 Mount Werner K3MW 211630Z AUTO RMK AO2 TSNO PWINO
Garmin aera 796 $1999 at Avionics Specialists LLC
Bose A20 Aviation Headsets $995 at Avionics Specialists LLC